Domov
logo

Vyskúšajte rýchly a spoľahlivý webhosting

Aktuálne počasie

LZIB - letisko Bratislava

Hodnoty namerané: 28.10.2020, 03:00 SEČ
Aktuálny čas: 28.10.2020, 03:29 SEČ
Aktualizované: pred 29 min.
Teplota: 10°C, pocitová teplota 9°C
Rosný bod: 8°C
Vietor: 7 km/h 240° (ZJZ)
Dohľadnosť: viac ako 10 km
Stav počasia: bez zrážok
Oblačnosť: oblačno na 762 m, oblačno na 2743 m
Základňa oblačnosti: 762 m
Vlhkosť vzduchu: 88 %
Tlak vzduchu: 1015 hPa
METAR: LZIB 280200Z 24004KT 9999 BKN025 BKN090 10/08 Q1015

LZKZ - letisko Košice

Hodnoty namerané: 28.10.2020, 03:00 SEČ
Aktuálny čas: 28.10.2020, 03:29 SEČ
Aktualizované: pred 29 min.
Teplota: 6°C
Rosný bod: 6°C
Vietor: bezvetrie
Dohľadnosť: 900 m
Stav počasia: hmla
Oblačnosť: nezaznamenané žiadne výrazné mraky
Vlhkosť vzduchu: 100 %
Tlak vzduchu: 1016 hPa
METAR: LZKZ 280200Z 00000KT 0900 R01/1200U FG NSC 06/06 Q1016

LZPP - letisko Piešťany

Hodnoty namerané: 28.10.2020, 03:00 SEČ
Aktuálny čas: 28.10.2020, 03:29 SEČ
Aktualizované: pred 29 min.
Teplota: 10°C
Rosný bod: 9°C
Vietor: 2 km/h 280° (Z)
Dohľadnosť: viac ako 10 km
Stav počasia: bez zrážok
Oblačnosť: zamračené na 732 m
Základňa oblačnosti: 732 m
Vlhkosť vzduchu: 94 %
Tlak vzduchu: 1015 hPa
METAR: LZPP 280200Z AUTO 28001KT 9999 OVC024/// 10/09 Q1015

LZTT - letisko Poprad Tatry

Hodnoty namerané: 28.10.2020, 03:00 SEČ
Aktuálny čas: 28.10.2020, 03:29 SEČ
Aktualizované: pred 29 min.
Teplota: 2°C, pocitová teplota 0°C
Rosný bod: 2°C
Vietor: 6 km/h 260° (Z)
Dohľadnosť: viac ako 10 km
Stav počasia: bez zrážok
Oblačnosť: jasno
Vlhkosť vzduchu: 100 %
Tlak vzduchu: 1015 hPa
METAR: LZTT 280200Z 26003KT CAVOK 02/02 Q1015

LZSL - letisko Sliač

Hodnoty namerané: 28.10.2020, 03:00 SEČ
Aktuálny čas: 28.10.2020, 03:29 SEČ
Aktualizované: pred 29 min.
Teplota: 9°C
Rosný bod: 8°C
Vietor: premenlivý 2 km/h
Dohľadnosť: viac ako 10 km
Stav počasia: bez zrážok
Oblačnosť: zamračené na 1219 m
Základňa oblačnosti: 1219 m
Vlhkosť vzduchu: 94 %
Tlak vzduchu: 1016 hPa
METAR: LZSL 280200Z VRB01KT 9999 OVC040 09/08 Q1016

LZZI - letisko Žilina

Hodnoty namerané: 28.10.2020, 03:00 SEČ
Aktuálny čas: 28.10.2020, 03:29 SEČ
Aktualizované: pred 29 min.
Teplota: 11°C
Rosný bod: 10°C
Vietor: premenlivý 2 km/h
Dohľadnosť: viac ako 10 km
Stav počasia: bez zrážok
Oblačnosť: polooblačno na 1067 m, zamračené na 2469 m
Základňa oblačnosti: 1067 m
Vlhkosť vzduchu: 94 %
Tlak vzduchu: 1015 hPa
METAR: LZZI 280200Z VRB01KT 9999 SCT035 OVC081 11/10 Q1015

POZNÁMKY:

SEČ - stredoeurópsky čas (UTC+1hod.)

SELČ - stredoeurópsky letný čas (UTC+2hod.)

UTC - univerzálny svetový čas, GMT, ZULU

METAR - sú pravidelné kódované letecké meteorologické správy. Tie zostavujú a zverejňujú meteorologické stanice letísk v polhodinových/hodinových intervaloch. Na tejto stránke správy METAR zo slovenských letísk nájdete už v dekódovanej podobe.

hore